Frenchville, ME

9:33 AM EST on December 20, 2014 (GMT -0500)
K1FTK | Change Station
CLOSE
Current Station
Personal Weather Station
Location: Saint Agatha, ME
Elevation: 825 ft
Nearby Weather Stations

Elev 825 ft 47.25 °N, 68.35 °W | Updated 2 minutes ago

Overcast
Overcast
16.4 °F
Feels Like 16 °F
N
0.0
Wind Variable Wind from North
Gusts 0.0 mph

Today
High -- | Low -- °F
--% Chance of Precip.
Yesterday
High -- | Low -- °F
Precip. -- in
7:16 AM 3:45 PM
Waning Crescent, 3% visible
Pressure 30.36 in
Visibility 6.0 miles
Clouds Overcast 700 ft
Windchill 16 °F
Dew Point 14 °F
Humidity 92%
Rainfall 0.00 in
Snow Depth Not available.
UV 0 out of 12
Pollen .10 out of 12
Air Quality Not available.
Flu Activity Not available.
METAR KFVE 201353Z AUTO 09004KT 6SM BR OVC007 M10/M11 A3030 RMK AO2 SLP280 T11001111

More Conditions Fewer Conditions

Pressure 30.36 in
Visibility 6.0 miles
Clouds Overcast 700 ft
Windchill 16 °F
Dew Point 14 °F
Humidity 92%
Rainfall 0.00 in
Snow Depth Not available.
UV 0 out of 12
Pollen .10 out of 12
Air Quality Not available.
Flu Activity Not available.
METAR KFVE 201353Z AUTO 09004KT 6SM BR OVC007 M10/M11 A3030 RMK AO2 SLP280 T11001111

More Conditions Fewer Conditions

10-Day Weather Forecast

Almanac

Astronomy

Dec. 20, 2014 Rise Set
Actual Time
Civil Twilight
Nautical Twilight
Astronomical Twilight
Moon
Length of Visible Light
Length of Day
Tomorrow will be .
, % of the Moon is Illuminated

Today's Extremes

State Highs State Lows

Community

WunderPhotos

Upload Photos

1,779,174 photos uploaded!

WunderBlogs® & News

Nearby

Air Quality

  Air Quality AQ Index Pollutant
Not available.

Snow Depth

Station Depth Elevation

Earthquake Activity

City Distance Mag. Time & Date
Minimum magnitude displayed is 2.5.

Coastal Water Temperatures

Place Temperature

Nearby Weather Stations